createdAt,value
2022-12-11T00:01:54.240Z,100.00
2022-12-11T00:04:23.295Z,100.00
2022-12-11T00:06:51.861Z,100.00
2022-12-11T00:09:21.662Z,100.00
2022-12-11T00:11:50.688Z,100.00
2022-12-11T00:14:19.320Z,100.00
2022-12-11T00:16:49.351Z,100.00
2022-12-11T00:19:19.238Z,100.00
2022-12-11T00:21:48.103Z,100.00
2022-12-11T00:24:16.839Z,100.00
2022-12-11T00:26:46.019Z,100.00
2022-12-11T00:29:15.403Z,100.00
2022-12-11T00:31:44.635Z,100.00
2022-12-11T00:34:13.187Z,100.00
2022-12-11T00:36:43.087Z,100.00
2022-12-11T00:39:11.638Z,100.00
2022-12-11T00:41:40.238Z,100.00
2022-12-11T00:44:08.783Z,100.00
2022-12-11T00:46:37.588Z,100.00
2022-12-11T00:49:06.223Z,100.00
2022-12-11T00:51:34.714Z,100.00
2022-12-11T00:54:05.053Z,100.00
2022-12-11T00:56:33.835Z,100.00
2022-12-11T00:59:02.392Z,100.00
2022-12-11T01:01:30.978Z,100.00
2022-12-11T01:03:59.738Z,100.00
2022-12-11T01:06:29.253Z,100.00
2022-12-11T01:09:12.170Z,100.00
2022-12-11T01:11:43.991Z,100.00
2022-12-11T01:14:13.106Z,100.00
2022-12-11T01:16:41.723Z,100.00
2022-12-11T01:19:10.348Z,100.00
2022-12-11T01:21:38.908Z,100.00
2022-12-11T01:24:07.945Z,100.00
2022-12-11T01:26:36.487Z,100.00
2022-12-11T01:29:06.463Z,100.00
2022-12-11T01:31:35.038Z,100.00
2022-12-11T01:34:03.571Z,100.00
2022-12-11T01:36:32.100Z,100.00
2022-12-11T01:39:00.639Z,100.00
2022-12-11T01:41:29.180Z,100.00
2022-12-11T01:44:03.413Z,100.00
2022-12-11T01:46:35.093Z,100.00
2022-12-11T01:49:07.234Z,100.00
2022-12-11T01:51:41.646Z,100.00
2022-12-11T01:54:12.558Z,100.00
2022-12-11T01:56:43.179Z,100.00
2022-12-11T01:59:14.509Z,100.00
2022-12-11T02:01:48.865Z,100.00
2022-12-11T02:04:17.525Z,100.00
2022-12-11T02:06:48.484Z,100.00
2022-12-11T02:09:20.268Z,100.00
2022-12-11T02:11:59.037Z,100.00
2022-12-11T02:14:33.867Z,100.00
2022-12-11T02:17:08.245Z,100.00
2022-12-11T02:19:45.826Z,100.00
2022-12-11T02:22:21.207Z,100.00
2022-12-11T02:25:03.798Z,100.00
2022-12-11T02:27:39.327Z,100.00
2022-12-11T02:30:12.070Z,100.00
2022-12-11T02:32:47.423Z,100.00
2022-12-11T02:35:20.801Z,100.00
2022-12-11T02:37:52.726Z,100.00
2022-12-11T02:40:28.139Z,100.00
2022-12-11T02:42:59.214Z,100.00
2022-12-11T02:45:30.800Z,100.00
2022-12-11T02:48:02.740Z,100.00
2022-12-11T02:50:31.760Z,100.00
2022-12-11T02:53:02.469Z,100.00
2022-12-11T02:55:33.122Z,100.00
2022-12-11T02:58:06.482Z,100.00
2022-12-11T03:00:36.432Z,100.00
2022-12-11T03:03:05.940Z,100.00
2022-12-11T03:05:34.514Z,100.00
2022-12-11T03:08:03.722Z,100.00
2022-12-11T03:10:32.302Z,100.00
2022-12-11T03:13:01.998Z,100.00
2022-12-11T03:15:41.643Z,100.00
2022-12-11T03:18:16.772Z,100.00
2022-12-11T03:20:48.748Z,100.00
2022-12-11T03:23:23.347Z,100.00
2022-12-11T03:25:57.447Z,100.00
2022-12-11T03:28:30.842Z,100.00
2022-12-11T03:31:06.682Z,100.00
2022-12-11T03:33:38.909Z,100.00
2022-12-11T03:36:11.090Z,100.00
2022-12-11T03:38:45.169Z,100.00
2022-12-11T03:41:16.046Z,100.00
2022-12-11T03:43:45.779Z,100.00
2022-12-11T03:46:17.925Z,100.00
2022-12-11T03:48:49.890Z,100.00
2022-12-11T03:51:19.436Z,100.00
2022-12-11T03:53:49.100Z,100.00
2022-12-11T03:56:19.294Z,100.00
2022-12-11T03:58:47.904Z,100.00
2022-12-11T04:01:17.824Z,100.00
2022-12-11T04:03:46.487Z,100.00
2022-12-11T04:06:15.003Z,100.00
2022-12-11T04:08:43.573Z,100.00
2022-12-11T04:11:29.546Z,100.00
2022-12-11T04:14:11.910Z,100.00
2022-12-11T04:16:41.815Z,100.00
2022-12-11T04:19:28.597Z,100.00
2022-12-11T04:22:14.873Z,100.00
2022-12-11T04:24:43.429Z,100.00
2022-12-11T04:27:11.963Z,100.00
2022-12-11T04:29:40.487Z,100.00
2022-12-11T04:32:10.392Z,100.00
2022-12-11T04:34:40.778Z,100.00
2022-12-11T04:37:09.305Z,100.00
2022-12-11T04:39:37.835Z,100.00
2022-12-11T04:42:06.422Z,100.00
2022-12-11T04:44:35.131Z,100.00
2022-12-11T04:47:03.692Z,100.00
2022-12-11T04:49:33.595Z,100.00
2022-12-11T04:52:02.098Z,100.00
2022-12-11T04:54:30.722Z,100.00
2022-12-11T04:56:59.239Z,100.00
2022-12-11T04:59:27.810Z,100.00
2022-12-11T05:01:56.341Z,100.00
2022-12-11T05:04:24.872Z,100.00
2022-12-11T05:06:54.787Z,100.00
2022-12-11T05:09:23.321Z,100.00
2022-12-11T05:11:51.920Z,100.00
2022-12-11T05:14:20.529Z,100.00
2022-12-11T05:16:49.254Z,100.00
2022-12-11T05:19:17.781Z,100.00
2022-12-11T05:21:46.406Z,100.00
2022-12-11T05:24:16.371Z,100.00
2022-12-11T05:26:44.966Z,100.00
2022-12-11T05:29:13.461Z,100.00
2022-12-11T05:31:42.029Z,100.00
2022-12-11T05:34:10.592Z,100.00
2022-12-11T05:36:39.265Z,100.00
2022-12-11T05:39:07.872Z,100.00
2022-12-11T05:41:37.748Z,100.00
2022-12-11T05:44:06.839Z,100.00
2022-12-11T05:46:35.721Z,100.00
2022-12-11T05:49:04.411Z,100.00
2022-12-11T05:51:34.307Z,100.00
2022-12-11T05:54:03.132Z,100.00
2022-12-11T05:56:34.143Z,100.00
2022-12-11T05:59:06.360Z,100.00
2022-12-11T06:01:37.224Z,100.00
2022-12-11T06:04:07.418Z,100.00
2022-12-11T06:06:36.264Z,100.00
2022-12-11T06:09:06.369Z,100.00
2022-12-11T06:11:35.995Z,100.00
2022-12-11T06:14:06.206Z,100.00
2022-12-11T06:16:34.743Z,100.00
2022-12-11T06:19:03.370Z,100.00
2022-12-11T06:21:33.461Z,100.00
2022-12-11T06:24:05.735Z,100.00
2022-12-11T06:26:34.320Z,100.00
2022-12-11T06:29:05.298Z,100.00
2022-12-11T06:31:38.921Z,100.00
2022-12-11T06:34:07.538Z,100.00
2022-12-11T06:36:36.228Z,100.00
2022-12-11T06:39:05.362Z,100.00
2022-12-11T06:41:33.977Z,100.00
2022-12-11T06:44:02.507Z,100.00
2022-12-11T06:46:31.065Z,100.00
2022-12-11T06:49:00.968Z,100.00
2022-12-11T06:51:29.462Z,100.00
2022-12-11T06:53:58.371Z,100.00
2022-12-11T06:56:27.025Z,100.00
2022-12-11T06:58:57.254Z,100.00
2022-12-11T07:01:28.226Z,100.00
2022-12-11T07:03:57.914Z,100.00
2022-12-11T07:06:29.596Z,100.00
2022-12-11T07:08:58.384Z,100.00
2022-12-11T07:11:26.947Z,100.00
2022-12-11T07:13:55.465Z,100.00
2022-12-11T07:16:24.071Z,100.00
2022-12-11T07:18:54.455Z,100.00
2022-12-11T07:21:23.209Z,100.00
2022-12-11T07:23:53.115Z,100.00
2022-12-11T07:26:22.850Z,100.00
2022-12-11T07:28:51.494Z,100.00
2022-12-11T07:31:23.127Z,100.00
2022-12-11T07:33:54.794Z,99.58
2022-12-11T07:36:24.065Z,99.34
2022-12-11T07:38:54.350Z,99.41
2022-12-11T07:41:23.705Z,99.70
2022-12-11T07:43:52.255Z,100.00
2022-12-11T07:46:23.197Z,100.00
2022-12-11T07:48:51.847Z,100.00
2022-12-11T07:51:23.131Z,100.00
2022-12-11T07:53:53.723Z,99.22
2022-12-11T07:56:23.329Z,99.37
2022-12-11T07:58:52.144Z,98.99
2022-12-11T08:01:22.921Z,99.30
2022-12-11T08:03:51.956Z,99.68
2022-12-11T08:06:25.465Z,99.42
2022-12-11T08:08:56.736Z,98.89
2022-12-11T08:11:25.961Z,99.47
2022-12-11T08:13:54.657Z,99.89
2022-12-11T08:16:23.472Z,99.99
2022-12-11T08:18:52.427Z,99.24
2022-12-11T08:21:23.328Z,100.00
2022-12-11T08:23:53.001Z,99.94
2022-12-11T08:26:24.988Z,99.77
2022-12-11T08:28:53.705Z,99.66
2022-12-11T08:31:23.027Z,99.30
2022-12-11T08:33:52.167Z,99.17
2022-12-11T08:36:22.913Z,99.84
2022-12-11T08:38:52.209Z,100.00
2022-12-11T08:41:24.064Z,99.62
2022-12-11T08:43:55.035Z,99.53
2022-12-11T08:46:25.878Z,99.68
2022-12-11T08:48:56.200Z,99.31
2022-12-11T08:51:27.131Z,98.79
2022-12-11T08:53:56.484Z,99.25
2022-12-11T08:56:27.219Z,99.17
2022-12-11T08:58:55.937Z,99.47
2022-12-11T09:01:26.488Z,99.44
2022-12-11T09:03:57.057Z,98.88
2022-12-11T09:06:28.770Z,99.32
2022-12-11T09:08:59.490Z,99.60
2022-12-11T09:11:31.225Z,99.72
2022-12-11T09:14:06.760Z,100.00
2022-12-11T09:16:39.716Z,99.25
2022-12-11T09:19:09.689Z,100.00
2022-12-11T09:21:38.172Z,100.00
2022-12-11T09:24:07.451Z,100.00
2022-12-11T09:26:37.370Z,100.00
2022-12-11T09:29:07.065Z,100.00
2022-12-11T09:31:38.134Z,100.00
2022-12-11T09:34:08.371Z,100.00
2022-12-11T09:36:36.955Z,99.56
2022-12-11T09:39:07.645Z,99.83
2022-12-11T09:41:40.531Z,100.00
2022-12-11T09:44:22.306Z,100.00
2022-12-11T09:46:52.784Z,100.00
2022-12-11T09:49:29.808Z,100.00
2022-12-11T09:52:08.473Z,100.00
2022-12-11T09:54:37.381Z,100.00
2022-12-11T09:57:16.367Z,100.00
2022-12-11T10:00:04.201Z,100.00
2022-12-11T10:02:51.111Z,100.00
2022-12-11T10:05:26.783Z,100.00
2022-12-11T10:08:01.590Z,100.00
2022-12-11T10:10:41.571Z,100.00
2022-12-11T10:13:26.041Z,100.00
2022-12-11T10:15:59.370Z,100.00
2022-12-11T10:18:31.015Z,100.00
2022-12-11T10:21:03.058Z,100.00
2022-12-11T10:23:37.344Z,100.00
2022-12-11T10:26:12.215Z,100.00
2022-12-11T10:28:42.199Z,100.00
2022-12-11T10:31:18.296Z,100.00
2022-12-11T10:33:57.220Z,100.00
2022-12-11T10:36:30.232Z,100.00
2022-12-11T10:38:59.778Z,100.00
2022-12-11T10:41:37.906Z,100.00
2022-12-11T10:44:18.603Z,100.00
2022-12-11T10:46:48.303Z,100.00
2022-12-11T10:49:25.923Z,100.00
2022-12-11T10:51:56.133Z,100.00
2022-12-11T10:54:33.656Z,100.00
2022-12-11T10:57:04.315Z,100.00
2022-12-11T10:59:39.498Z,100.00
2022-12-11T11:02:23.079Z,100.00
2022-12-11T11:04:52.790Z,100.00
2022-12-11T11:07:24.650Z,100.00
2022-12-11T11:10:05.796Z,100.00
2022-12-11T11:12:39.751Z,100.00
2022-12-11T11:15:15.308Z,100.00
2022-12-11T11:17:54.669Z,100.00
2022-12-11T11:20:26.729Z,100.00
2022-12-11T11:22:57.502Z,100.00
2022-12-11T11:25:28.112Z,100.00
2022-12-11T11:27:59.015Z,100.00
2022-12-11T11:30:31.652Z,100.00
2022-12-11T11:33:04.720Z,100.00
2022-12-11T11:35:34.252Z,100.00
2022-12-11T11:38:11.008Z,100.00
2022-12-11T11:40:44.647Z,100.00
2022-12-11T11:43:20.219Z,100.00
2022-12-11T11:45:55.055Z,100.00
2022-12-11T11:48:37.626Z,100.00
2022-12-11T11:51:15.936Z,100.00
2022-12-11T11:53:49.524Z,100.00
2022-12-11T11:56:22.841Z,100.00
2022-12-11T11:59:01.195Z,100.00
2022-12-11T12:01:31.608Z,100.00
2022-12-11T12:04:00.993Z,100.00
2022-12-11T12:06:59.000Z,100.00
2022-12-11T12:09:40.332Z,100.00
2022-12-11T12:12:25.550Z,100.00
2022-12-11T12:15:11.633Z,100.00
2022-12-11T12:17:55.380Z,100.00
2022-12-11T12:20:40.967Z,100.00
2022-12-11T12:23:36.929Z,100.00
2022-12-11T12:26:12.632Z,100.00
2022-12-11T12:28:51.900Z,100.00
2022-12-11T12:31:32.596Z,100.00
2022-12-11T12:34:11.273Z,100.00
2022-12-11T12:36:47.283Z,100.00
2022-12-11T12:39:25.970Z,100.00
2022-12-11T12:42:07.449Z,100.00
2022-12-11T12:44:42.974Z,100.00
2022-12-11T12:47:14.479Z,100.00
2022-12-11T12:49:47.340Z,100.00
2022-12-11T12:52:19.305Z,100.00
2022-12-11T12:55:06.956Z,100.00
2022-12-11T12:57:37.768Z,100.00
2022-12-11T13:00:13.247Z,100.00
2022-12-11T13:02:50.582Z,100.00
2022-12-11T13:05:26.055Z,100.00
2022-12-11T13:07:57.925Z,100.00
2022-12-11T13:10:32.573Z,100.00
2022-12-11T13:13:02.659Z,100.00
2022-12-11T13:15:35.453Z,100.00
2022-12-11T13:18:06.081Z,100.00
2022-12-11T13:20:47.537Z,100.00
2022-12-11T13:23:27.851Z,100.00
2022-12-11T13:25:58.278Z,100.00
2022-12-11T13:28:34.483Z,100.00
2022-12-11T13:31:33.362Z,100.00
2022-12-11T13:34:15.167Z,100.00
2022-12-11T13:36:48.836Z,100.00
2022-12-11T13:39:19.924Z,100.00
2022-12-11T13:41:53.340Z,100.00
2022-12-11T13:44:27.083Z,100.00
2022-12-11T13:46:58.274Z,100.00
2022-12-11T13:49:30.047Z,100.00
2022-12-11T13:52:01.316Z,100.00
2022-12-11T13:54:31.337Z,100.00
2022-12-11T13:57:14.539Z,100.00
2022-12-11T13:59:44.858Z,100.00
2022-12-11T14:02:19.116Z,100.00
2022-12-11T14:04:49.368Z,100.00
2022-12-11T14:07:26.498Z,100.00
2022-12-11T14:10:01.288Z,100.00
2022-12-11T14:12:31.406Z,100.00
2022-12-11T14:15:03.524Z,100.00
2022-12-11T14:17:34.217Z,100.00
2022-12-11T14:20:07.458Z,100.00
2022-12-11T14:22:37.792Z,100.00
2022-12-11T14:25:23.130Z,100.00
2022-12-11T14:27:54.256Z,100.00
2022-12-11T14:30:24.770Z,100.00
2022-12-11T14:32:55.923Z,100.00
2022-12-11T14:35:34.170Z,100.00
2022-12-11T14:38:12.456Z,100.00
2022-12-11T14:40:44.828Z,100.00
2022-12-11T14:43:19.879Z,100.00
2022-12-11T14:45:50.710Z,100.00
2022-12-11T14:48:24.414Z,100.00
2022-12-11T14:50:57.744Z,100.00
2022-12-11T14:53:30.540Z,100.00
2022-12-11T14:56:02.714Z,100.00
2022-12-11T14:58:31.963Z,100.00
2022-12-11T15:01:03.105Z,100.00
2022-12-11T15:03:47.368Z,100.00
2022-12-11T15:06:29.784Z,100.00
2022-12-11T15:09:17.623Z,100.00
2022-12-11T15:11:47.187Z,100.00
2022-12-11T15:14:17.940Z,100.00
2022-12-11T15:16:48.554Z,100.00
2022-12-11T15:19:22.036Z,100.00
2022-12-11T15:21:50.889Z,100.00
2022-12-11T15:24:33.616Z,100.00
2022-12-11T15:27:03.586Z,100.00
2022-12-11T15:29:36.283Z,100.00
2022-12-11T15:32:19.102Z,100.00
2022-12-11T15:34:54.019Z,100.00
2022-12-11T15:37:24.504Z,100.00
2022-12-11T15:39:56.389Z,100.00
2022-12-11T15:42:28.358Z,100.00
2022-12-11T15:44:57.550Z,100.00
2022-12-11T15:47:28.845Z,100.00
2022-12-11T15:49:59.973Z,100.00
2022-12-11T15:52:29.218Z,100.00
2022-12-11T15:54:59.090Z,100.00
2022-12-11T15:57:27.616Z,100.00
2022-12-11T15:59:56.470Z,100.00
2022-12-11T16:02:26.757Z,100.00
2022-12-11T16:04:55.692Z,100.00
2022-12-11T16:07:26.372Z,100.00
2022-12-11T16:09:54.906Z,100.00
2022-12-11T16:12:31.114Z,100.00
2022-12-11T16:15:02.176Z,100.00
2022-12-11T16:17:31.447Z,100.00
2022-12-11T16:20:00.007Z,100.00
2022-12-11T16:22:28.896Z,100.00
2022-12-11T16:24:57.525Z,100.00
2022-12-11T16:27:27.591Z,100.00
2022-12-11T16:29:56.288Z,100.00
2022-12-11T16:32:24.940Z,100.00
2022-12-11T16:34:55.628Z,100.00
2022-12-11T16:37:24.413Z,100.00
2022-12-11T16:39:53.061Z,100.00
2022-12-11T16:42:21.657Z,100.00
2022-12-11T16:44:51.559Z,100.00
2022-12-11T16:47:20.212Z,100.00
2022-12-11T16:49:48.720Z,100.00
2022-12-11T16:52:22.171Z,100.00
2022-12-11T16:54:51.023Z,100.00
2022-12-11T16:57:19.670Z,100.00
2022-12-11T16:59:48.669Z,100.00
2022-12-11T17:02:19.368Z,100.00
2022-12-11T17:04:53.710Z,100.00
2022-12-11T17:07:22.742Z,100.00
2022-12-11T17:09:51.581Z,100.00
2022-12-11T17:12:23.211Z,100.00
2022-12-11T17:14:51.820Z,100.00
2022-12-11T17:17:22.023Z,100.00
2022-12-11T17:19:50.624Z,100.00
2022-12-11T17:22:19.275Z,100.00
2022-12-11T17:24:51.480Z,100.00
2022-12-11T17:27:20.249Z,100.00
2022-12-11T17:29:49.736Z,100.00
2022-12-11T17:32:19.007Z,100.00
2022-12-11T17:34:55.935Z,100.00
2022-12-11T17:37:24.438Z,100.00
2022-12-11T17:40:03.139Z,100.00
2022-12-11T17:42:33.668Z,100.00
2022-12-11T17:45:05.512Z,100.00
2022-12-11T17:47:34.050Z,100.00
2022-12-11T17:50:04.016Z,100.00
2022-12-11T17:52:35.002Z,100.00
2022-12-11T17:55:06.468Z,100.00
2022-12-11T17:57:35.179Z,100.00
2022-12-11T18:00:03.879Z,100.00
2022-12-11T18:02:34.355Z,100.00
2022-12-11T18:05:04.494Z,100.00
2022-12-11T18:07:33.108Z,100.00
2022-12-11T18:10:01.938Z,100.00
2022-12-11T18:12:31.024Z,100.00
2022-12-11T18:15:00.672Z,100.00
2022-12-11T18:17:29.316Z,100.00
2022-12-11T18:19:57.927Z,100.00
2022-12-11T18:22:27.952Z,100.00
2022-12-11T18:24:58.313Z,100.00
2022-12-11T18:27:27.144Z,100.00
2022-12-11T18:29:55.909Z,100.00
2022-12-11T18:32:24.592Z,100.00
2022-12-11T18:34:53.313Z,100.00
2022-12-11T18:37:27.587Z,100.00
2022-12-11T18:39:58.066Z,100.00
2022-12-11T18:42:33.994Z,100.00
2022-12-11T18:45:02.712Z,100.00
2022-12-11T18:47:31.830Z,100.00
2022-12-11T18:50:07.169Z,100.00
2022-12-11T18:52:36.916Z,100.00
2022-12-11T18:55:07.898Z,100.00
2022-12-11T18:57:36.679Z,100.00
2022-12-11T19:00:13.958Z,100.00
2022-12-11T19:02:42.675Z,100.00
2022-12-11T19:05:13.994Z,100.00
2022-12-11T19:07:42.695Z,100.00
2022-12-11T19:10:13.202Z,100.00
2022-12-11T19:12:44.951Z,100.00
2022-12-11T19:15:14.714Z,100.00
2022-12-11T19:17:45.164Z,100.00
2022-12-11T19:20:47.579Z,100.00
2022-12-11T19:23:05.192Z,100.00
2022-12-11T19:25:35.302Z,100.00
2022-12-11T19:28:03.799Z,100.00
2022-12-11T19:30:32.394Z,100.00
2022-12-11T19:33:00.957Z,100.00
2022-12-11T19:35:29.524Z,100.00
2022-12-11T19:37:58.099Z,100.00
2022-12-11T19:40:26.755Z,100.00
2022-12-11T19:42:56.663Z,100.00
2022-12-11T19:45:25.232Z,100.00
2022-12-11T19:47:53.751Z,100.00
2022-12-11T19:50:22.421Z,100.00
2022-12-11T19:52:51.174Z,100.00
2022-12-11T19:55:21.752Z,100.00
2022-12-11T19:57:50.283Z,100.00
2022-12-11T20:00:20.928Z,100.00
2022-12-11T20:02:51.931Z,100.00
2022-12-11T20:05:20.605Z,100.00
2022-12-11T20:07:49.161Z,100.00
2022-12-11T20:10:17.788Z,100.00
2022-12-11T20:12:46.511Z,100.00
2022-12-11T20:15:16.706Z,100.00
2022-12-11T20:17:47.384Z,100.00
2022-12-11T20:20:18.795Z,100.00
2022-12-11T20:22:47.323Z,100.00
2022-12-11T20:25:15.984Z,100.00
2022-12-11T20:27:44.508Z,100.00
2022-12-11T20:30:13.857Z,100.00
2022-12-11T20:32:42.441Z,100.00
2022-12-11T20:35:13.217Z,100.00
2022-12-11T20:37:41.977Z,100.00
2022-12-11T20:40:11.214Z,100.00
2022-12-11T20:42:40.572Z,100.00
2022-12-11T20:45:10.131Z,100.00
2022-12-11T20:47:38.970Z,100.00
2022-12-11T20:50:08.979Z,100.00
2022-12-11T20:52:39.469Z,100.00
2022-12-11T20:55:09.434Z,100.00
2022-12-11T20:57:43.380Z,100.00
2022-12-11T21:00:14.859Z,100.00
2022-12-11T21:02:43.509Z,100.00
2022-12-11T21:05:12.440Z,100.00
2022-12-11T21:07:42.502Z,100.00
2022-12-11T21:10:11.562Z,100.00
2022-12-11T21:12:40.054Z,100.00
2022-12-11T21:15:09.906Z,100.00
2022-12-11T21:17:38.552Z,100.00
2022-12-11T21:20:08.782Z,100.00
2022-12-11T21:22:37.539Z,100.00
2022-12-11T21:25:07.978Z,100.00
2022-12-11T21:27:36.526Z,100.00
2022-12-11T21:30:06.415Z,100.00
2022-12-11T21:32:35.365Z,100.00
2022-12-11T21:35:04.887Z,100.00
2022-12-11T21:37:33.384Z,100.00
2022-12-11T21:40:01.943Z,100.00
2022-12-11T21:42:31.809Z,100.00
2022-12-11T21:46:10.320Z,100.00
2022-12-11T21:47:48.774Z,100.00
2022-12-11T21:50:17.344Z,100.00
2022-12-11T21:52:46.055Z,100.00
2022-12-11T21:55:14.917Z,100.00
2022-12-11T21:57:44.948Z,100.00
2022-12-11T22:00:17.114Z,100.00
2022-12-11T22:02:49.333Z,100.00
2022-12-11T22:05:21.023Z,100.00
2022-12-11T22:07:49.901Z,100.00
2022-12-11T22:10:18.701Z,100.00
2022-12-11T22:12:52.664Z,100.00
2022-12-11T22:15:21.161Z,100.00
2022-12-11T22:17:49.711Z,100.00
2022-12-11T22:20:18.685Z,100.00
2022-12-11T22:22:47.433Z,100.00
2022-12-11T22:25:16.035Z,100.00
2022-12-11T22:27:44.552Z,100.00
2022-12-11T22:30:15.400Z,100.00
2022-12-11T22:32:45.223Z,100.00
2022-12-11T22:35:13.990Z,100.00
2022-12-11T22:37:42.679Z,100.00
2022-12-11T22:40:11.373Z,100.00
2022-12-11T22:42:40.275Z,100.00
2022-12-11T22:45:10.132Z,100.00
2022-12-11T22:47:40.580Z,100.00
2022-12-11T22:50:09.878Z,100.00
2022-12-11T22:52:40.015Z,100.00
2022-12-11T22:55:09.703Z,100.00
2022-12-11T22:57:38.872Z,100.00
2022-12-11T23:00:09.855Z,100.00
2022-12-11T23:02:38.984Z,100.00
2022-12-11T23:05:11.663Z,100.00
2022-12-11T23:07:40.675Z,100.00
2022-12-11T23:10:11.248Z,100.00
2022-12-11T23:12:39.796Z,100.00
2022-12-11T23:15:09.682Z,100.00
2022-12-11T23:17:40.246Z,100.00
2022-12-11T23:20:11.378Z,100.00
2022-12-11T23:22:39.965Z,100.00
2022-12-11T23:25:09.378Z,100.00
2022-12-11T23:27:38.214Z,100.00
2022-12-11T23:30:07.936Z,100.00
2022-12-11T23:32:37.139Z,100.00
2022-12-11T23:35:07.127Z,100.00
2022-12-11T23:37:37.030Z,100.00
2022-12-11T23:40:06.795Z,100.00
2022-12-11T23:42:35.292Z,100.00
2022-12-11T23:45:03.878Z,100.00
2022-12-11T23:47:32.420Z,100.00
2022-12-11T23:50:04.356Z,100.00
2022-12-11T23:52:32.860Z,100.00
2022-12-11T23:55:02.879Z,100.00
2022-12-11T23:57:31.586Z,100.00
